Alva, Kentucky
Current Conditions -  °F | °C
As of 3:55 AM on Sunday 23 Nov 2014 (Local Time) from KI35 Reporting Station
Clear Clear  
Wind Chill: 46°   Ceiling: Unl
Heat Index: 48°   Visibility: 10mi
Dew Point: 30°   Wind: 5mph
Humidity: 50%   Direction: 80°E
Pressure: 30.13"   Gusts: NA
Location:  36.747°N, 83.4563°W
Report Text: KI35 230855Z AUTO 08004KT 10SM CLR 09/M01 A3013 RMK AO1
Loading
Personal Weather Stations






























Interactive Weather Map New forecast layout! Learn more

10-Day Weather Forecast

Advertisements
Track Severe Weather on mobile